<?xml version="1.0" encoding="UTF-8" standalone="no" ?>
<gpx xmlns="http://www.topografix.com/GPX/1/1" xmlns:xsi="http://www.w3.org/2001/XMLSchema-instance" xsi:schemaLocation="http://www.topografix.com/GPX/1/1 http://www.topografix.com/GPX/1/1/gpx.xsd" version="1.1" creator="VisuGPX - https://www.visugpx.com">
  <metadata>
    <name>Randonnée îlot du Mont Saint Michel.</name>
    <desc><![CDATA[Roz Armor- chapelle du mont Saint Michel.]]></desc>
  </metadata>
  <trk>
    <name><![CDATA[2018-06-15 16:12:17]]></name>
    <trkseg>
      <trkpt lat="48.65206" lon="-2.43904">
        <ele>5.34</ele>
        <time>2018-06-15T12:17:14Z</time>
      </trkpt>
      <trkpt lat="48.65207" lon="-2.43905">
        <ele>4.96</ele>
        <time>2018-06-15T12:17:29Z</time>
      </trkpt>
      <trkpt lat="48.65205" lon="-2.43908">
        <ele>4.54</ele>
        <time>2018-06-15T12:17:52Z</time>
      </trkpt>
      <trkpt lat="48.65205" lon="-2.4391">
        <ele>3.64</ele>
        <time>2018-06-15T12:18:20Z</time>
      </trkpt>
      <trkpt lat="48.65208" lon="-2.43897">
        <ele>4.26</ele>
        <time>2018-06-15T12:18:36Z</time>
      </trkpt>
      <trkpt lat="48.65214" lon="-2.43888">
        <ele>4.57</ele>
        <time>2018-06-15T12:18:44Z</time>
      </trkpt>
      <trkpt lat="48.65224" lon="-2.43878">
        <ele>4.43</ele>
        <time>2018-06-15T12:18:56Z</time>
      </trkpt>
      <trkpt lat="48.6524" lon="-2.43864">
        <ele>4.02</ele>
        <time>2018-06-15T12:19:12Z</time>
      </trkpt>
      <trkpt lat="48.65246" lon="-2.43852">
        <ele>3.73</ele>
        <time>2018-06-15T12:19:24Z</time>
      </trkpt>
      <trkpt lat="48.65248" lon="-2.43849">
        <ele>2.92</ele>
        <time>2018-06-15T12:19:36Z</time>
      </trkpt>
      <trkpt lat="48.6525" lon="-2.43837">
        <ele>2.84</ele>
        <time>2018-06-15T12:19:42Z</time>
      </trkpt>
      <trkpt lat="48.65254" lon="-2.43806">
        <ele>2.93</ele>
        <time>2018-06-15T12:19:59Z</time>
      </trkpt>
      <trkpt lat="48.65254" lon="-2.4377">
        <ele>2.51</ele>
        <time>2018-06-15T12:20:17Z</time>
      </trkpt>
      <trkpt lat="48.65254" lon="-2.43768">
        <ele>2.66</ele>
        <time>2018-06-15T12:20:18Z</time>
      </trkpt>
      <trkpt lat="48.65253" lon="-2.43759">
        <ele>2.55</ele>
        <time>2018-06-15T12:20:23Z</time>
      </trkpt>
      <trkpt lat="48.65249" lon="-2.43736">
        <ele>2.78</ele>
        <time>2018-06-15T12:20:37Z</time>
      </trkpt>
      <trkpt lat="48.65245" lon="-2.43719">
        <ele>3.12</ele>
        <time>2018-06-15T12:20:49Z</time>
      </trkpt>
      <trkpt lat="48.65238" lon="-2.43695">
        <ele>3.68</ele>
        <time>2018-06-15T12:21:05Z</time>
      </trkpt>
      <trkpt lat="48.65228" lon="-2.43669">
        <ele>2.88</ele>
        <time>2018-06-15T12:21:22Z</time>
      </trkpt>
      <trkpt lat="48.65217" lon="-2.43643">
        <ele>4.22</ele>
        <time>2018-06-15T12:21:39Z</time>
      </trkpt>
      <trkpt lat="48.65204" lon="-2.43619">
        <ele>4.25</ele>
        <time>2018-06-15T12:21:56Z</time>
      </trkpt>
      <trkpt lat="48.65193" lon="-2.43599">
        <ele>4.25</ele>
        <time>2018-06-15T12:22:11Z</time>
      </trkpt>
      <trkpt lat="48.65192" lon="-2.43598">
        <ele>4.77</ele>
        <time>2018-06-15T12:22:12Z</time>
      </trkpt>
      <trkpt lat="48.6519" lon="-2.43593">
        <ele>4.48</ele>
        <time>2018-06-15T12:22:16Z</time>
      </trkpt>
      <trkpt lat="48.65186" lon="-2.43588">
        <ele>4.12</ele>
        <time>2018-06-15T12:22:20Z</time>
      </trkpt>
      <trkpt lat="48.65173" lon="-2.43565">
        <ele>4.62</ele>
        <time>2018-06-15T12:22:38Z</time>
      </trkpt>
      <trkpt lat="48.65162" lon="-2.43547">
        <ele>4.78</ele>
        <time>2018-06-15T12:22:52Z</time>
      </trkpt>
      <trkpt lat="48.65145" lon="-2.43524">
        <ele>5.15</ele>
        <time>2018-06-15T12:23:11Z</time>
      </trkpt>
      <trkpt lat="48.65131" lon="-2.435">
        <ele>5.18</ele>
        <time>2018-06-15T12:23:32Z</time>
      </trkpt>
      <trkpt lat="48.6513" lon="-2.43499">
        <ele>5.45</ele>
        <time>2018-06-15T12:23:33Z</time>
      </trkpt>
      <trkpt lat="48.65116" lon="-2.43476">
        <ele>4.67</ele>
        <time>2018-06-15T12:23:50Z</time>
      </trkpt>
      <trkpt lat="48.65101" lon="-2.43463">
        <ele>4.7</ele>
        <time>2018-06-15T12:24:05Z</time>
      </trkpt>
      <trkpt lat="48.6509" lon="-2.43439">
        <ele>4.66</ele>
        <time>2018-06-15T12:24:22Z</time>
      </trkpt>
      <trkpt lat="48.65078" lon="-2.43421">
        <ele>5.99</ele>
        <time>2018-06-15T12:24:37Z</time>
      </trkpt>
      <trkpt lat="48.6507" lon="-2.43402">
        <ele>6.25</ele>
        <time>2018-06-15T12:24:56Z</time>
      </trkpt>
      <trkpt lat="48.65068" lon="-2.43399">
        <ele>6.85</ele>
        <time>2018-06-15T12:25:02Z</time>
      </trkpt>
      <trkpt lat="48.65065" lon="-2.43392">
        <ele>7</ele>
        <time>2018-06-15T12:25:06Z</time>
      </trkpt>
      <trkpt lat="48.65055" lon="-2.43371">
        <ele>7.02</ele>
        <time>2018-06-15T12:25:21Z</time>
      </trkpt>
      <trkpt lat="48.65044" lon="-2.43351">
        <ele>7.11</ele>
        <time>2018-06-15T12:25:37Z</time>
      </trkpt>
      <trkpt lat="48.65041" lon="-2.43347">
        <ele>6.86</ele>
        <time>2018-06-15T12:25:47Z</time>
      </trkpt>
      <trkpt lat="48.65039" lon="-2.43343">
        <ele>6.96</ele>
        <time>2018-06-15T12:25:50Z</time>
      </trkpt>
      <trkpt lat="48.65028" lon="-2.43327">
        <ele>6.4</ele>
        <time>2018-06-15T12:26:03Z</time>
      </trkpt>
      <trkpt lat="48.65015" lon="-2.43307">
        <ele>6.33</ele>
        <time>2018-06-15T12:26:20Z</time>
      </trkpt>
      <trkpt lat="48.65014" lon="-2.43306">
        <ele>6.52</ele>
        <time>2018-06-15T12:26:21Z</time>
      </trkpt>
      <trkpt lat="48.65007" lon="-2.43292">
        <ele>6.53</ele>
        <time>2018-06-15T12:26:35Z</time>
      </trkpt>
      <trkpt lat="48.64997" lon="-2.43276">
        <ele>3.88</ele>
        <time>2018-06-15T12:26:53Z</time>
      </trkpt>
      <trkpt lat="48.64988" lon="-2.43267">
        <ele>4.42</ele>
        <time>2018-06-15T12:27:08Z</time>
      </trkpt>
      <trkpt lat="48.64985" lon="-2.43263">
        <ele>4.49</ele>
        <time>2018-06-15T12:27:13Z</time>
      </trkpt>
      <trkpt lat="48.6498" lon="-2.43253">
        <ele>4.15</ele>
        <time>2018-06-15T12:27:23Z</time>
      </trkpt>
      <trkpt lat="48.64968" lon="-2.43244">
        <ele>3.95</ele>
        <time>2018-06-15T12:27:36Z</time>
      </trkpt>
      <trkpt lat="48.64967" lon="-2.43241">
        <ele>5.64</ele>
        <time>2018-06-15T12:27:38Z</time>
      </trkpt>
      <trkpt lat="48.64959" lon="-2.43227">
        <ele>4.61</ele>
        <time>2018-06-15T12:27:54Z</time>
      </trkpt>
      <trkpt lat="48.64952" lon="-2.43211">
        <ele>4.5</ele>
        <time>2018-06-15T12:28:07Z</time>
      </trkpt>
      <trkpt lat="48.64948" lon="-2.43202">
        <ele>4.01</ele>
        <time>2018-06-15T12:28:14Z</time>
      </trkpt>
      <trkpt lat="48.64935" lon="-2.43187">
        <ele>4.84</ele>
        <time>2018-06-15T12:28:29Z</time>
      </trkpt>
      <trkpt lat="48.64921" lon="-2.43167">
        <ele>4.83</ele>
        <time>2018-06-15T12:28:48Z</time>
      </trkpt>
      <trkpt lat="48.64913" lon="-2.43157">
        <ele>5.08</ele>
        <time>2018-06-15T12:28:58Z</time>
      </trkpt>
      <trkpt lat="48.64903" lon="-2.43139">
        <ele>4.88</ele>
        <time>2018-06-15T12:29:11Z</time>
      </trkpt>
      <trkpt lat="48.64904" lon="-2.43128">
        <ele>4.45</ele>
        <time>2018-06-15T12:29:26Z</time>
      </trkpt>
      <trkpt lat="48.6491" lon="-2.43125">
        <ele>4.08</ele>
        <time>2018-06-15T12:29:33Z</time>
      </trkpt>
      <trkpt lat="48.64919" lon="-2.43109">
        <ele>4.19</ele>
        <time>2018-06-15T12:29:45Z</time>
      </trkpt>
      <trkpt lat="48.6492" lon="-2.43099">
        <ele>4.78</ele>
        <time>2018-06-15T12:29:51Z</time>
      </trkpt>
      <trkpt lat="48.6492" lon="-2.43094">
        <ele>4.94</ele>
        <time>2018-06-15T12:29:54Z</time>
      </trkpt>
      <trkpt lat="48.64922" lon="-2.4309">
        <ele>5.42</ele>
        <time>2018-06-15T12:29:57Z</time>
      </trkpt>
      <trkpt lat="48.64917" lon="-2.4307">
        <ele>5.51</ele>
        <time>2018-06-15T12:30:11Z</time>
      </trkpt>
      <trkpt lat="48.64912" lon="-2.43047">
        <ele>5.37</ele>
        <time>2018-06-15T12:30:25Z</time>
      </trkpt>
      <trkpt lat="48.6491" lon="-2.43037">
        <ele>4.95</ele>
        <time>2018-06-15T12:30:31Z</time>
      </trkpt>
      <trkpt lat="48.64907" lon="-2.43005">
        <ele>4.86</ele>
        <time>2018-06-15T12:30:51Z</time>
      </trkpt>
      <trkpt lat="48.64905" lon="-2.43004">
        <ele>4.16</ele>
        <time>2018-06-15T12:31:06Z</time>
      </trkpt>
      <trkpt lat="48.64903" lon="-2.42998">
        <ele>4.86</ele>
        <time>2018-06-15T12:31:11Z</time>
      </trkpt>
      <trkpt lat="48.649" lon="-2.42975">
        <ele>4.3</ele>
        <time>2018-06-15T12:31:27Z</time>
      </trkpt>
      <trkpt lat="48.64894" lon="-2.42948">
        <ele>4.74</ele>
        <time>2018-06-15T12:31:44Z</time>
      </trkpt>
      <trkpt lat="48.64888" lon="-2.42921">
        <ele>4.36</ele>
        <time>2018-06-15T12:32:00Z</time>
      </trkpt>
      <trkpt lat="48.64883" lon="-2.42902">
        <ele>4.72</ele>
        <time>2018-06-15T12:32:13Z</time>
      </trkpt>
      <trkpt lat="48.64879" lon="-2.42881">
        <ele>4.28</ele>
        <time>2018-06-15T12:32:27Z</time>
      </trkpt>
      <trkpt lat="48.64876" lon="-2.42873">
        <ele>4.66</ele>
        <time>2018-06-15T12:32:34Z</time>
      </trkpt>
      <trkpt lat="48.64876" lon="-2.42866">
        <ele>4.72</ele>
        <time>2018-06-15T12:32:39Z</time>
      </trkpt>
      <trkpt lat="48.64883" lon="-2.42851">
        <ele>3.81</ele>
        <time>2018-06-15T12:32:52Z</time>
      </trkpt>
      <trkpt lat="48.64896" lon="-2.42843">
        <ele>3.59</ele>
        <time>2018-06-15T12:33:05Z</time>
      </trkpt>
      <trkpt lat="48.64909" lon="-2.42825">
        <ele>2.67</ele>
        <time>2018-06-15T12:33:22Z</time>
      </trkpt>
      <trkpt lat="48.64915" lon="-2.42818">
        <ele>1.67</ele>
        <time>2018-06-15T12:33:35Z</time>
      </trkpt>
      <trkpt lat="48.64918" lon="-2.42813">
        <ele>1.39</ele>
        <time>2018-06-15T12:33:41Z</time>
      </trkpt>
      <trkpt lat="48.64922" lon="-2.42808">
        <ele>1.06</ele>
        <time>2018-06-15T12:33:46Z</time>
      </trkpt>
      <trkpt lat="48.64933" lon="-2.42793">
        <ele>-0.87</ele>
        <time>2018-06-15T12:34:00Z</time>
      </trkpt>
      <trkpt lat="48.64935" lon="-2.42792">
        <ele>-0.93</ele>
        <time>2018-06-15T12:34:02Z</time>
      </trkpt>
      <trkpt lat="48.64938" lon="-2.42787">
        <ele>-1.59</ele>
        <time>2018-06-15T12:34:08Z</time>
      </trkpt>
      <trkpt lat="48.6495" lon="-2.42775">
        <ele>-2.73</ele>
        <time>2018-06-15T12:34:23Z</time>
      </trkpt>
      <trkpt lat="48.64961" lon="-2.4276">
        <ele>-3.4</ele>
        <time>2018-06-15T12:34:39Z</time>
      </trkpt>
      <trkpt lat="48.64972" lon="-2.42743">
        <ele>-3.87</ele>
        <time>2018-06-15T12:34:55Z</time>
      </trkpt>
      <trkpt lat="48.64975" lon="-2.4274">
        <ele>-4.18</ele>
        <time>2018-06-15T12:34:59Z</time>
      </trkpt>
      <trkpt lat="48.6499" lon="-2.42729">
        <ele>-3.84</ele>
        <time>2018-06-15T12:35:17Z</time>
      </trkpt>
      <trkpt lat="48.64999" lon="-2.42717">
        <ele>-4.13</ele>
        <time>2018-06-15T12:35:29Z</time>
      </trkpt>
      <trkpt lat="48.65013" lon="-2.42702">
        <ele>-4.25</ele>
        <time>2018-06-15T12:35:46Z</time>
      </trkpt>
      <trkpt lat="48.65024" lon="-2.42688">
        <ele>-5.02</ele>
        <time>2018-06-15T12:36:01Z</time>
      </trkpt>
      <trkpt lat="48.65038" lon="-2.42676">
        <ele>-5.59</ele>
        <time>2018-06-15T12:36:16Z</time>
      </trkpt>
      <trkpt lat="48.65044" lon="-2.42666">
        <ele>-5.89</ele>
        <time>2018-06-15T12:36:29Z</time>
      </trkpt>
      <trkpt lat="48.65054" lon="-2.42653">
        <ele>-6.23</ele>
        <time>2018-06-15T12:36:43Z</time>
      </trkpt>
      <trkpt lat="48.65064" lon="-2.42641">
        <ele>-5.96</ele>
        <time>2018-06-15T12:36:57Z</time>
      </trkpt>
      <trkpt lat="48.6507" lon="-2.42633">
        <ele>-6.17</ele>
        <time>2018-06-15T12:37:05Z</time>
      </trkpt>
      <trkpt lat="48.65084" lon="-2.42624">
        <ele>-6.41</ele>
        <time>2018-06-15T12:37:20Z</time>
      </trkpt>
      <trkpt lat="48.65098" lon="-2.42617">
        <ele>-6.79</ele>
        <time>2018-06-15T12:37:35Z</time>
      </trkpt>
      <trkpt lat="48.65113" lon="-2.4261">
        <ele>-7.1</ele>
        <time>2018-06-15T12:37:52Z</time>
      </trkpt>
      <trkpt lat="48.65123" lon="-2.42605">
        <ele>-7.08</ele>
        <time>2018-06-15T12:38:05Z</time>
      </trkpt>
      <trkpt lat="48.65133" lon="-2.42601">
        <ele>-7.12</ele>
        <time>2018-06-15T12:38:20Z</time>
      </trkpt>
      <trkpt lat="48.65138" lon="-2.42606">
        <ele>-7.5</ele>
        <time>2018-06-15T12:38:39Z</time>
      </trkpt>
      <trkpt lat="48.65139" lon="-2.42603">
        <ele>-7.27</ele>
        <time>2018-06-15T12:38:42Z</time>
      </trkpt>
      <trkpt lat="48.6514" lon="-2.42599">
        <ele>-6.78</ele>
        <time>2018-06-15T12:38:59Z</time>
      </trkpt>
      <trkpt lat="48.65141" lon="-2.426">
        <ele>-7</ele>
        <time>2018-06-15T12:39:18Z</time>
      </trkpt>
      <trkpt lat="48.65139" lon="-2.42608">
        <ele>-6.86</ele>
        <time>2018-06-15T12:39:27Z</time>
      </trkpt>
      <trkpt lat="48.65134" lon="-2.42613">
        <ele>-7.16</ele>
        <time>2018-06-15T12:39:44Z</time>
      </trkpt>
      <trkpt lat="48.65138" lon="-2.42606">
        <ele>-7.03</ele>
        <time>2018-06-15T12:40:01Z</time>
      </trkpt>
      <trkpt lat="48.65136" lon="-2.42603">
        <ele>-6.46</ele>
        <time>2018-06-15T12:40:27Z</time>
      </trkpt>
      <trkpt lat="48.65143" lon="-2.42598">
        <ele>-6.84</ele>
        <time>2018-06-15T12:40:38Z</time>
      </trkpt>
      <trkpt lat="48.65146" lon="-2.42594">
        <ele>-6.51</ele>
        <time>2018-06-15T12:40:56Z</time>
      </trkpt>
      <trkpt lat="48.6515" lon="-2.42589">
        <ele>-6.55</ele>
        <time>2018-06-15T12:41:12Z</time>
      </trkpt>
      <trkpt lat="48.65157" lon="-2.42578">
        <ele>-6.4</ele>
        <time>2018-06-15T12:41:29Z</time>
      </trkpt>
      <trkpt lat="48.65161" lon="-2.4257">
        <ele>-6.18</ele>
        <time>2018-06-15T12:41:38Z</time>
      </trkpt>
      <trkpt lat="48.65172" lon="-2.42563">
        <ele>-5.83</ele>
        <time>2018-06-15T12:41:53Z</time>
      </trkpt>
      <trkpt lat="48.65174" lon="-2.42563">
        <ele>-6.07</ele>
        <time>2018-06-15T12:42:24Z</time>
      </trkpt>
      <trkpt lat="48.65191" lon="-2.42562">
        <ele>-5.29</ele>
        <time>2018-06-15T12:42:41Z</time>
      </trkpt>
      <trkpt lat="48.65197" lon="-2.42561">
        <ele>-5.71</ele>
        <time>2018-06-15T12:42:48Z</time>
      </trkpt>
      <trkpt lat="48.65216" lon="-2.42557">
        <ele>-5.37</ele>
        <time>2018-06-15T12:43:05Z</time>
      </trkpt>
      <trkpt lat="48.65225" lon="-2.42553">
        <ele>-15.36</ele>
        <time>2018-06-15T12:43:19Z</time>
      </trkpt>
      <trkpt lat="48.65225" lon="-2.42553">
        <ele>3.26</ele>
        <time>2018-06-15T12:43:20Z</time>
      </trkpt>
      <trkpt lat="48.65226" lon="-2.42552">
        <ele>-5.12</ele>
        <time>2018-06-15T12:43:21Z</time>
      </trkpt>
      <trkpt lat="48.65227" lon="-2.42554">
        <ele>-5.32</ele>
        <time>2018-06-15T12:43:34Z</time>
      </trkpt>
      <trkpt lat="48.6523" lon="-2.42554">
        <ele>-5.5</ele>
        <time>2018-06-15T12:43:37Z</time>
      </trkpt>
      <trkpt lat="48.65234" lon="-2.42553">
        <ele>-5.13</ele>
        <time>2018-06-15T12:43:46Z</time>
      </trkpt>
      <trkpt lat="48.65246" lon="-2.42546">
        <ele>-5.05</ele>
        <time>2018-06-15T12:44:03Z</time>
      </trkpt>
      <trkpt lat="48.65247" lon="-2.42546">
        <ele>-5.61</ele>
        <time>2018-06-15T12:44:04Z</time>
      </trkpt>
      <trkpt lat="48.65259" lon="-2.4254">
        <ele>-4.41</ele>
        <time>2018-06-15T12:44:22Z</time>
      </trkpt>
      <trkpt lat="48.65263" lon="-2.42539">
        <ele>-4.67</ele>
        <time>2018-06-15T12:44:27Z</time>
      </trkpt>
      <trkpt lat="48.65272" lon="-2.42537">
        <ele>-5.04</ele>
        <time>2018-06-15T12:44:42Z</time>
      </trkpt>
      <trkpt lat="48.65281" lon="-2.42536">
        <ele>-4.06</ele>
        <time>2018-06-15T12:44:58Z</time>
      </trkpt>
      <trkpt lat="48.65292" lon="-2.4253">
        <ele>-4.24</ele>
        <time>2018-06-15T12:45:13Z</time>
      </trkpt>
      <trkpt lat="48.65302" lon="-2.42525">
        <ele>-4.32</ele>
        <time>2018-06-15T12:45:29Z</time>
      </trkpt>
      <trkpt lat="48.65313" lon="-2.42526">
        <ele>-4.22</ele>
        <time>2018-06-15T12:45:44Z</time>
      </trkpt>
      <trkpt lat="48.65322" lon="-2.42528">
        <ele>-4.84</ele>
        <time>2018-06-15T12:45:58Z</time>
      </trkpt>
      <trkpt lat="48.65331" lon="-2.42529">
        <ele>-5.53</ele>
        <time>2018-06-15T12:46:12Z</time>
      </trkpt>
      <trkpt lat="48.65335" lon="-2.42528">
        <ele>-5.75</ele>
        <time>2018-06-15T12:46:18Z</time>
      </trkpt>
      <trkpt lat="48.65346" lon="-2.42525">
        <ele>-6.3</ele>
        <time>2018-06-15T12:46:32Z</time>
      </trkpt>
      <trkpt lat="48.65346" lon="-2.42525">
        <ele>-6.16</ele>
        <time>2018-06-15T12:46:35Z</time>
      </trkpt>
      <trkpt lat="48.65358" lon="-2.42518">
        <ele>-5.67</ele>
        <time>2018-06-15T12:46:49Z</time>
      </trkpt>
      <trkpt lat="48.65371" lon="-2.42509">
        <ele>-5.64</ele>
        <time>2018-06-15T12:47:05Z</time>
      </trkpt>
      <trkpt lat="48.65379" lon="-2.42506">
        <ele>-4.96</ele>
        <time>2018-06-15T12:47:19Z</time>
      </trkpt>
      <trkpt lat="48.6538" lon="-2.42512">
        <ele>-5.35</ele>
        <time>2018-06-15T12:47:34Z</time>
      </trkpt>
      <trkpt lat="48.65383" lon="-2.42509">
        <ele>-4.59</ele>
        <time>2018-06-15T12:47:41Z</time>
      </trkpt>
      <trkpt lat="48.65385" lon="-2.42508">
        <ele>-5.06</ele>
        <time>2018-06-15T12:47:43Z</time>
      </trkpt>
      <trkpt lat="48.65396" lon="-2.425">
        <ele>-4.61</ele>
        <time>2018-06-15T12:48:00Z</time>
      </trkpt>
      <trkpt lat="48.65404" lon="-2.42495">
        <ele>-3.34</ele>
        <time>2018-06-15T12:48:14Z</time>
      </trkpt>
      <trkpt lat="48.65412" lon="-2.42494">
        <ele>-2.4</ele>
        <time>2018-06-15T12:48:28Z</time>
      </trkpt>
      <trkpt lat="48.65422" lon="-2.42495">
        <ele>-2.11</ele>
        <time>2018-06-15T12:48:43Z</time>
      </trkpt>
      <trkpt lat="48.65426" lon="-2.42509">
        <ele>-1.44</ele>
        <time>2018-06-15T12:48:57Z</time>
      </trkpt>
      <trkpt lat="48.65425" lon="-2.42514">
        <ele>-1.59</ele>
        <time>2018-06-15T12:49:13Z</time>
      </trkpt>
      <trkpt lat="48.65426" lon="-2.42512">
        <ele>-1.56</ele>
        <time>2018-06-15T12:49:46Z</time>
      </trkpt>
      <trkpt lat="48.65426" lon="-2.42512">
        <ele>-1.83</ele>
        <time>2018-06-15T12:50:13Z</time>
      </trkpt>
      <trkpt lat="48.65426" lon="-2.42512">
        <ele>-1.59</ele>
        <time>2018-06-15T12:50:35Z</time>
      </trkpt>
      <trkpt lat="48.65426" lon="-2.42511">
        <ele>-1.4</ele>
        <time>2018-06-15T12:50:58Z</time>
      </trkpt>
      <trkpt lat="48.65425" lon="-2.4251">
        <ele>-1.77</ele>
        <time>2018-06-15T12:51:23Z</time>
      </trkpt>
      <trkpt lat="48.65425" lon="-2.42509">
        <ele>-2.06</ele>
        <time>2018-06-15T12:51:48Z</time>
      </trkpt>
      <trkpt lat="48.65426" lon="-2.42513">
        <ele>-1.83</ele>
        <time>2018-06-15T12:52:09Z</time>
      </trkpt>
      <trkpt lat="48.6543" lon="-2.42519">
        <ele>-1.74</ele>
        <time>2018-06-15T12:52:20Z</time>
      </trkpt>
      <trkpt lat="48.65434" lon="-2.42523">
        <ele>-0.45</ele>
        <time>2018-06-15T12:52:34Z</time>
      </trkpt>
      <trkpt lat="48.65439" lon="-2.42532">
        <ele>-0.59</ele>
        <time>2018-06-15T12:52:47Z</time>
      </trkpt>
      <trkpt lat="48.65445" lon="-2.42538">
        <ele>0.22</ele>
        <time>2018-06-15T12:53:04Z</time>
      </trkpt>
      <trkpt lat="48.65446" lon="-2.42539">
        <ele>1.15</ele>
        <time>2018-06-15T12:53:08Z</time>
      </trkpt>
      <trkpt lat="48.65451" lon="-2.42541">
        <ele>1.87</ele>
        <time>2018-06-15T12:53:21Z</time>
      </trkpt>
      <trkpt lat="48.65456" lon="-2.42545">
        <ele>3.01</ele>
        <time>2018-06-15T12:53:35Z</time>
      </trkpt>
      <trkpt lat="48.65455" lon="-2.42543">
        <ele>2.55</ele>
        <time>2018-06-15T12:53:52Z</time>
      </trkpt>
      <trkpt lat="48.65452" lon="-2.42535">
        <ele>3.43</ele>
        <time>2018-06-15T12:54:10Z</time>
      </trkpt>
      <trkpt lat="48.65459" lon="-2.42533">
        <ele>4.57</ele>
        <time>2018-06-15T12:54:25Z</time>
      </trkpt>
      <trkpt lat="48.65464" lon="-2.4253">
        <ele>8.35</ele>
        <time>2018-06-15T12:54:39Z</time>
      </trkpt>
      <trkpt lat="48.65468" lon="-2.42538">
        <ele>9.33</ele>
        <time>2018-06-15T12:54:54Z</time>
      </trkpt>
      <trkpt lat="48.65468" lon="-2.4254">
        <ele>9.82</ele>
        <time>2018-06-15T12:55:14Z</time>
      </trkpt>
      <trkpt lat="48.65473" lon="-2.4254">
        <ele>10.17</ele>
        <time>2018-06-15T12:55:42Z</time>
      </trkpt>
      <trkpt lat="48.6548" lon="-2.42534">
        <ele>11.16</ele>
        <time>2018-06-15T12:55:53Z</time>
      </trkpt>
      <trkpt lat="48.65487" lon="-2.42533">
        <ele>11.5</ele>
        <time>2018-06-15T12:56:01Z</time>
      </trkpt>
      <trkpt lat="48.65499" lon="-2.42537">
        <ele>14.8</ele>
        <time>2018-06-15T12:56:16Z</time>
      </trkpt>
      <trkpt lat="48.65508" lon="-2.42533">
        <ele>15.41</ele>
        <time>2018-06-15T12:56:31Z</time>
      </trkpt>
      <trkpt lat="48.65513" lon="-2.42528">
        <ele>16.41</ele>
        <time>2018-06-15T12:56:49Z</time>
      </trkpt>
      <trkpt lat="48.65515" lon="-2.42528">
        <ele>15.72</ele>
        <time>2018-06-15T12:56:51Z</time>
      </trkpt>
      <trkpt lat="48.65522" lon="-2.42529">
        <ele>16.27</ele>
        <time>2018-06-15T12:56:57Z</time>
      </trkpt>
      <trkpt lat="48.65538" lon="-2.42531">
        <ele>16.46</ele>
        <time>2018-06-15T12:57:14Z</time>
      </trkpt>
      <trkpt lat="48.65546" lon="-2.42527">
        <ele>19</ele>
        <time>2018-06-15T12:57:30Z</time>
      </trkpt>
      <trkpt lat="48.65546" lon="-2.42529">
        <ele>18.91</ele>
        <time>2018-06-15T12:57:55Z</time>
      </trkpt>
      <trkpt lat="48.65549" lon="-2.42529">
        <ele>18.78</ele>
        <time>2018-06-15T12:58:25Z</time>
      </trkpt>
      <trkpt lat="48.65554" lon="-2.42531">
        <ele>19.25</ele>
        <time>2018-06-15T12:58:42Z</time>
      </trkpt>
      <trkpt lat="48.65556" lon="-2.42536">
        <ele>18.86</ele>
        <time>2018-06-15T12:59:04Z</time>
      </trkpt>
      <trkpt lat="48.65554" lon="-2.42538">
        <ele>19.05</ele>
        <time>2018-06-15T12:59:25Z</time>
      </trkpt>
      <trkpt lat="48.6555" lon="-2.4254">
        <ele>18.78</ele>
        <time>2018-06-15T12:59:43Z</time>
      </trkpt>
      <trkpt lat="48.65549" lon="-2.42537">
        <ele>19.34</ele>
        <time>2018-06-15T13:00:09Z</time>
      </trkpt>
      <trkpt lat="48.65551" lon="-2.42533">
        <ele>18.49</ele>
        <time>2018-06-15T13:00:26Z</time>
      </trkpt>
      <trkpt lat="48.65552" lon="-2.4253">
        <ele>19.54</ele>
        <time>2018-06-15T13:00:42Z</time>
      </trkpt>
      <trkpt lat="48.65553" lon="-2.42537">
        <ele>19.48</ele>
        <time>2018-06-15T13:00:58Z</time>
      </trkpt>
      <trkpt lat="48.65554" lon="-2.42544">
        <ele>19.44</ele>
        <time>2018-06-15T13:01:14Z</time>
      </trkpt>
      <trkpt lat="48.65559" lon="-2.42538">
        <ele>18.6</ele>
        <time>2018-06-15T13:01:45Z</time>
      </trkpt>
      <trkpt lat="48.65561" lon="-2.42535">
        <ele>18.79</ele>
        <time>2018-06-15T13:02:12Z</time>
      </trkpt>
      <trkpt lat="48.65563" lon="-2.42536">
        <ele>18.98</ele>
        <time>2018-06-15T13:02:35Z</time>
      </trkpt>
      <trkpt lat="48.65558" lon="-2.42541">
        <ele>19.2</ele>
        <time>2018-06-15T13:02:59Z</time>
      </trkpt>
      <trkpt lat="48.65552" lon="-2.42528">
        <ele>19.7</ele>
        <time>2018-06-15T13:03:15Z</time>
      </trkpt>
      <trkpt lat="48.65551" lon="-2.42526">
        <ele>19.54</ele>
        <time>2018-06-15T13:03:19Z</time>
      </trkpt>
      <trkpt lat="48.65547" lon="-2.42527">
        <ele>19.64</ele>
        <time>2018-06-15T13:03:33Z</time>
      </trkpt>
      <trkpt lat="48.65538" lon="-2.42525">
        <ele>20.88</ele>
        <time>2018-06-15T13:03:57Z</time>
      </trkpt>
      <trkpt lat="48.65536" lon="-2.42524">
        <ele>21.93</ele>
        <time>2018-06-15T13:04:12Z</time>
      </trkpt>
      <trkpt lat="48.65539" lon="-2.42521">
        <ele>21.44</ele>
        <time>2018-06-15T13:04:32Z</time>
      </trkpt>
      <trkpt lat="48.65543" lon="-2.42524">
        <ele>20.54</ele>
        <time>2018-06-15T13:04:46Z</time>
      </trkpt>
      <trkpt lat="48.65553" lon="-2.42528">
        <ele>19.29</ele>
        <time>2018-06-15T13:05:01Z</time>
      </trkpt>
      <trkpt lat="48.65552" lon="-2.42526">
        <ele>19.97</ele>
        <time>2018-06-15T13:05:22Z</time>
      </trkpt>
      <trkpt lat="48.65552" lon="-2.42534">
        <ele>20.3</ele>
        <time>2018-06-15T13:05:41Z</time>
      </trkpt>
      <trkpt lat="48.65551" lon="-2.42537">
        <ele>20.42</ele>
        <time>2018-06-15T13:06:09Z</time>
      </trkpt>
      <trkpt lat="48.65555" lon="-2.42539">
        <ele>20.51</ele>
        <time>2018-06-15T13:06:32Z</time>
      </trkpt>
      <trkpt lat="48.65555" lon="-2.42543">
        <ele>20.52</ele>
        <time>2018-06-15T13:07:13Z</time>
      </trkpt>
      <trkpt lat="48.6555" lon="-2.42538">
        <ele>19.88</ele>
        <time>2018-06-15T13:07:33Z</time>
      </trkpt>
      <trkpt lat="48.6555" lon="-2.42541">
        <ele>20.24</ele>
        <time>2018-06-15T13:07:54Z</time>
      </trkpt>
      <trkpt lat="48.65548" lon="-2.42536">
        <ele>20.45</ele>
        <time>2018-06-15T13:08:15Z</time>
      </trkpt>
      <trkpt lat="48.65546" lon="-2.4253">
        <ele>16.83</ele>
        <time>2018-06-15T13:08:26Z</time>
      </trkpt>
      <trkpt lat="48.65546" lon="-2.4253">
        <ele>18.32</ele>
        <time>2018-06-15T13:08:27Z</time>
      </trkpt>
      <trkpt lat="48.65546" lon="-2.4253">
        <ele>23.66</ele>
        <time>2018-06-15T13:08:28Z</time>
      </trkpt>
      <trkpt lat="48.65546" lon="-2.4253">
        <ele>20.39</ele>
        <time>2018-06-15T13:08:29Z</time>
      </trkpt>
      <trkpt lat="48.65545" lon="-2.42527">
        <ele>20.63</ele>
        <time>2018-06-15T13:09:07Z</time>
      </trkpt>
      <trkpt lat="48.65544" lon="-2.42524">
        <ele>20.79</ele>
        <time>2018-06-15T13:09:36Z</time>
      </trkpt>
      <trkpt lat="48.65544" lon="-2.42527">
        <ele>21.64</ele>
        <time>2018-06-15T13:10:07Z</time>
      </trkpt>
      <trkpt lat="48.65544" lon="-2.42526">
        <ele>21.18</ele>
        <time>2018-06-15T13:10:33Z</time>
      </trkpt>
      <trkpt lat="48.65543" lon="-2.42528">
        <ele>21.01</ele>
        <time>2018-06-15T13:11:06Z</time>
      </trkpt>
      <trkpt lat="48.65542" lon="-2.42528">
        <ele>20.78</ele>
        <time>2018-06-15T13:11:34Z</time>
      </trkpt>
      <trkpt lat="48.65544" lon="-2.42529">
        <ele>21.34</ele>
        <time>2018-06-15T13:12:12Z</time>
      </trkpt>
      <trkpt lat="48.65544" lon="-2.42526">
        <ele>21.19</ele>
        <time>2018-06-15T13:12:42Z</time>
      </trkpt>
      <trkpt lat="48.65545" lon="-2.42528">
        <ele>20.82</ele>
        <time>2018-06-15T13:13:10Z</time>
      </trkpt>
      <trkpt lat="48.65545" lon="-2.42528">
        <ele>20.7</ele>
        <time>2018-06-15T13:13:39Z</time>
      </trkpt>
      <trkpt lat="48.65545" lon="-2.4253">
        <ele>21.13</ele>
        <time>2018-06-15T13:14:10Z</time>
      </trkpt>
      <trkpt lat="48.65545" lon="-2.42529">
        <ele>20.6</ele>
        <time>2018-06-15T13:14:36Z</time>
      </trkpt>
      <trkpt lat="48.65545" lon="-2.42531">
        <ele>20.28</ele>
        <time>2018-06-15T13:15:06Z</time>
      </trkpt>
      <trkpt lat="48.65545" lon="-2.4253">
        <ele>20.28</ele>
        <time>2018-06-15T13:15:36Z</time>
      </trkpt>
      <trkpt lat="48.65546" lon="-2.42527">
        <ele>21.1</ele>
        <time>2018-06-15T13:16:06Z</time>
      </trkpt>
      <trkpt lat="48.65546" lon="-2.42527">
        <ele>19.89</ele>
        <time>2018-06-15T13:16:07Z</time>
      </trkpt>
      <trkpt lat="48.65547" lon="-2.42525">
        <ele>18.15</ele>
        <time>2018-06-15T13:16:09Z</time>
      </trkpt>
      <trkpt lat="48.65547" lon="-2.42526">
        <ele>22.16</ele>
        <time>2018-06-15T13:16:10Z</time>
      </trkpt>
      <trkpt lat="48.65544" lon="-2.42522">
        <ele>18.62</ele>
        <time>2018-06-15T13:16:38Z</time>
      </trkpt>
      <trkpt lat="48.65544" lon="-2.42522">
        <ele>22.58</ele>
        <time>2018-06-15T13:16:39Z</time>
      </trkpt>
      <trkpt lat="48.65543" lon="-2.42523">
        <ele>19.03</ele>
        <time>2018-06-15T13:16:44Z</time>
      </trkpt>
      <trkpt lat="48.65544" lon="-2.42527">
        <ele>20.48</ele>
        <time>2018-06-15T13:17:10Z</time>
      </trkpt>
      <trkpt lat="48.65545" lon="-2.42527">
        <ele>20.13</ele>
        <time>2018-06-15T13:17:39Z</time>
      </trkpt>
      <trkpt lat="48.65545" lon="-2.42527">
        <ele>20.61</ele>
        <time>2018-06-15T13:17:46Z</time>
      </trkpt>
      <trkpt lat="48.65545" lon="-2.42524">
        <ele>20.54</ele>
        <time>2018-06-15T13:18:15Z</time>
      </trkpt>
      <trkpt lat="48.65546" lon="-2.42524">
        <ele>20.01</ele>
        <time>2018-06-15T13:18:46Z</time>
      </trkpt>
      <trkpt lat="48.65547" lon="-2.42521">
        <ele>20.2</ele>
        <time>2018-06-15T13:19:15Z</time>
      </trkpt>
      <trkpt lat="48.65547" lon="-2.42519">
        <ele>19.71</ele>
        <time>2018-06-15T13:19:46Z</time>
      </trkpt>
      <trkpt lat="48.65545" lon="-2.42527">
        <ele>19.97</ele>
        <time>2018-06-15T13:20:16Z</time>
      </trkpt>
      <trkpt lat="48.65544" lon="-2.42534">
        <ele>19.94</ele>
        <time>2018-06-15T13:20:32Z</time>
      </trkpt>
      <trkpt lat="48.65542" lon="-2.42534">
        <ele>19.43</ele>
        <time>2018-06-15T13:20:47Z</time>
      </trkpt>
      <trkpt lat="48.65542" lon="-2.42532">
        <ele>19.19</ele>
        <time>2018-06-15T13:21:12Z</time>
      </trkpt>
      <trkpt lat="48.65544" lon="-2.42532">
        <ele>19.39</ele>
        <time>2018-06-15T13:21:54Z</time>
      </trkpt>
      <trkpt lat="48.65544" lon="-2.42533">
        <ele>18.99</ele>
        <time>2018-06-15T13:22:03Z</time>
      </trkpt>
      <trkpt lat="48.65545" lon="-2.42533">
        <ele>19.56</ele>
        <time>2018-06-15T13:22:04Z</time>
      </trkpt>
      <trkpt lat="48.6555" lon="-2.42534">
        <ele>19.85</ele>
        <time>2018-06-15T13:22:11Z</time>
      </trkpt>
      <trkpt lat="48.65555" lon="-2.42534">
        <ele>20.95</ele>
        <time>2018-06-15T13:22:25Z</time>
      </trkpt>
      <trkpt lat="48.65552" lon="-2.42536">
        <ele>20.11</ele>
        <time>2018-06-15T13:22:41Z</time>
      </trkpt>
      <trkpt lat="48.65552" lon="-2.42536">
        <ele>21.09</ele>
        <time>2018-06-15T13:22:55Z</time>
      </trkpt>
      <trkpt lat="48.65549" lon="-2.42537">
        <ele>20.39</ele>
        <time>2018-06-15T13:23:23Z</time>
      </trkpt>
      <trkpt lat="48.6555" lon="-2.42535">
        <ele>20.56</ele>
        <time>2018-06-15T13:23:47Z</time>
      </trkpt>
      <trkpt lat="48.65551" lon="-2.42535">
        <ele>20.85</ele>
        <time>2018-06-15T13:24:11Z</time>
      </trkpt>
      <trkpt lat="48.6555" lon="-2.42532">
        <ele>20.72</ele>
        <time>2018-06-15T13:24:37Z</time>
      </trkpt>
      <trkpt lat="48.65554" lon="-2.42534">
        <ele>21.86</ele>
        <time>2018-06-15T13:24:52Z</time>
      </trkpt>
      <trkpt lat="48.65557" lon="-2.42534">
        <ele>21.99</ele>
        <time>2018-06-15T13:24:59Z</time>
      </trkpt>
      <trkpt lat="48.65551" lon="-2.42537">
        <ele>21.71</ele>
        <time>2018-06-15T13:25:15Z</time>
      </trkpt>
      <trkpt lat="48.65547" lon="-2.4253">
        <ele>20.9</ele>
        <time>2018-06-15T13:25:31Z</time>
      </trkpt>
      <trkpt lat="48.65544" lon="-2.42533">
        <ele>20.27</ele>
        <time>2018-06-15T13:25:51Z</time>
      </trkpt>
      <trkpt lat="48.65536" lon="-2.42533">
        <ele>18.65</ele>
        <time>2018-06-15T13:26:04Z</time>
      </trkpt>
      <trkpt lat="48.65528" lon="-2.42533">
        <ele>18.26</ele>
        <time>2018-06-15T13:26:17Z</time>
      </trkpt>
      <trkpt lat="48.6551" lon="-2.42531">
        <ele>18.27</ele>
        <time>2018-06-15T13:26:32Z</time>
      </trkpt>
      <trkpt lat="48.65509" lon="-2.42533">
        <ele>18.41</ele>
        <time>2018-06-15T13:26:51Z</time>
      </trkpt>
      <trkpt lat="48.65507" lon="-2.42534">
        <ele>18.15</ele>
        <time>2018-06-15T13:27:01Z</time>
      </trkpt>
      <trkpt lat="48.655" lon="-2.42542">
        <ele>14.96</ele>
        <time>2018-06-15T13:27:14Z</time>
      </trkpt>
      <trkpt lat="48.65487" lon="-2.42537">
        <ele>13.87</ele>
        <time>2018-06-15T13:27:31Z</time>
      </trkpt>
      <trkpt lat="48.65485" lon="-2.42537">
        <ele>14.03</ele>
        <time>2018-06-15T13:27:32Z</time>
      </trkpt>
      <trkpt lat="48.65473" lon="-2.42542">
        <ele>12.26</ele>
        <time>2018-06-15T13:27:49Z</time>
      </trkpt>
      <trkpt lat="48.65466" lon="-2.42544">
        <ele>11.88</ele>
        <time>2018-06-15T13:28:05Z</time>
      </trkpt>
      <trkpt lat="48.65466" lon="-2.42533">
        <ele>10.97</ele>
        <time>2018-06-15T13:28:28Z</time>
      </trkpt>
      <trkpt lat="48.6546" lon="-2.42533">
        <ele>8.28</ele>
        <time>2018-06-15T13:28:49Z</time>
      </trkpt>
      <trkpt lat="48.65452" lon="-2.42531">
        <ele>5.92</ele>
        <time>2018-06-15T13:29:08Z</time>
      </trkpt>
      <trkpt lat="48.6545" lon="-2.42536">
        <ele>4.89</ele>
        <time>2018-06-15T13:29:27Z</time>
      </trkpt>
      <trkpt lat="48.65445" lon="-2.42541">
        <ele>3.13</ele>
        <time>2018-06-15T13:29:44Z</time>
      </trkpt>
      <trkpt lat="48.65444" lon="-2.42539">
        <ele>2.16</ele>
        <time>2018-06-15T13:30:01Z</time>
      </trkpt>
      <trkpt lat="48.65444" lon="-2.4254">
        <ele>2.43</ele>
        <time>2018-06-15T13:30:30Z</time>
      </trkpt>
      <trkpt lat="48.65444" lon="-2.42539">
        <ele>2.67</ele>
        <time>2018-06-15T13:30:56Z</time>
      </trkpt>
      <trkpt lat="48.65444" lon="-2.42539">
        <ele>3.03</ele>
        <time>2018-06-15T13:31:20Z</time>
      </trkpt>
      <trkpt lat="48.65442" lon="-2.42536">
        <ele>2.6</ele>
        <time>2018-06-15T13:31:30Z</time>
      </trkpt>
      <trkpt lat="48.65433" lon="-2.42531">
        <ele>1.67</ele>
        <time>2018-06-15T13:31:46Z</time>
      </trkpt>
      <trkpt lat="48.65431" lon="-2.42523">
        <ele>1.2</ele>
        <time>2018-06-15T13:32:04Z</time>
      </trkpt>
      <trkpt lat="48.65426" lon="-2.42514">
        <ele>0.2</ele>
        <time>2018-06-15T13:32:25Z</time>
      </trkpt>
      <trkpt lat="48.65421" lon="-2.42504">
        <ele>-0.19</ele>
        <time>2018-06-15T13:32:43Z</time>
      </trkpt>
      <trkpt lat="48.65416" lon="-2.42497">
        <ele>-0.06</ele>
        <time>2018-06-15T13:32:59Z</time>
      </trkpt>
      <trkpt lat="48.65415" lon="-2.42494">
        <ele>0.19</ele>
        <time>2018-06-15T13:33:18Z</time>
      </trkpt>
      <trkpt lat="48.65413" lon="-2.42494">
        <ele>-0.14</ele>
        <time>2018-06-15T13:33:34Z</time>
      </trkpt>
      <trkpt lat="48.65412" lon="-2.42495">
        <ele>-0.24</ele>
        <time>2018-06-15T13:33:59Z</time>
      </trkpt>
      <trkpt lat="48.65412" lon="-2.42499">
        <ele>-0.31</ele>
        <time>2018-06-15T13:34:17Z</time>
      </trkpt>
      <trkpt lat="48.65413" lon="-2.42498">
        <ele>0.37</ele>
        <time>2018-06-15T13:34:50Z</time>
      </trkpt>
      <trkpt lat="48.65412" lon="-2.42495">
        <ele>0.02</ele>
        <time>2018-06-15T13:35:23Z</time>
      </trkpt>
      <trkpt lat="48.65411" lon="-2.42495">
        <ele>-0.19</ele>
        <time>2018-06-15T13:35:49Z</time>
      </trkpt>
      <trkpt lat="48.65412" lon="-2.42497">
        <ele>-0.21</ele>
        <time>2018-06-15T13:36:12Z</time>
      </trkpt>
      <trkpt lat="48.65414" lon="-2.42498">
        <ele>-0.03</ele>
        <time>2018-06-15T13:36:41Z</time>
      </trkpt>
      <trkpt lat="48.65414" lon="-2.42496">
        <ele>0.19</ele>
        <time>2018-06-15T13:37:07Z</time>
      </trkpt>
      <trkpt lat="48.65411" lon="-2.42498">
        <ele>0.17</ele>
        <time>2018-06-15T13:37:28Z</time>
      </trkpt>
      <trkpt lat="48.65411" lon="-2.42501">
        <ele>-0.26</ele>
        <time>2018-06-15T13:37:47Z</time>
      </trkpt>
      <trkpt lat="48.65411" lon="-2.42502">
        <ele>-0.16</ele>
        <time>2018-06-15T13:38:11Z</time>
      </trkpt>
      <trkpt lat="48.65409" lon="-2.42499">
        <ele>0.18</ele>
        <time>2018-06-15T13:38:30Z</time>
      </trkpt>
      <trkpt lat="48.65402" lon="-2.42501">
        <ele>-0.99</ele>
        <time>2018-06-15T13:38:48Z</time>
      </trkpt>
      <trkpt lat="48.65396" lon="-2.425">
        <ele>-1.07</ele>
        <time>2018-06-15T13:39:04Z</time>
      </trkpt>
      <trkpt lat="48.65385" lon="-2.42502">
        <ele>-1.5</ele>
        <time>2018-06-15T13:39:20Z</time>
      </trkpt>
      <trkpt lat="48.65378" lon="-2.42505">
        <ele>-2.46</ele>
        <time>2018-06-15T13:39:30Z</time>
      </trkpt>
      <trkpt lat="48.65372" lon="-2.42507">
        <ele>-2.88</ele>
        <time>2018-06-15T13:39:37Z</time>
      </trkpt>
      <trkpt lat="48.65367" lon="-2.42508">
        <ele>-2.53</ele>
        <time>2018-06-15T13:39:46Z</time>
      </trkpt>
      <trkpt lat="48.65356" lon="-2.42516">
        <ele>-3.32</ele>
        <time>2018-06-15T13:40:01Z</time>
      </trkpt>
      <trkpt lat="48.65342" lon="-2.42522">
        <ele>-2.99</ele>
        <time>2018-06-15T13:40:19Z</time>
      </trkpt>
      <trkpt lat="48.65334" lon="-2.42526">
        <ele>-2.95</ele>
        <time>2018-06-15T13:40:30Z</time>
      </trkpt>
      <trkpt lat="48.65326" lon="-2.4253">
        <ele>-3.24</ele>
        <time>2018-06-15T13:40:40Z</time>
      </trkpt>
      <trkpt lat="48.65313" lon="-2.4253">
        <ele>-2.16</ele>
        <time>2018-06-15T13:40:56Z</time>
      </trkpt>
      <trkpt lat="48.65308" lon="-2.42533">
        <ele>-2.24</ele>
        <time>2018-06-15T13:41:03Z</time>
      </trkpt>
      <trkpt lat="48.65299" lon="-2.42539">
        <ele>-1.92</ele>
        <time>2018-06-15T13:41:18Z</time>
      </trkpt>
      <trkpt lat="48.65289" lon="-2.42542">
        <ele>-2.29</ele>
        <time>2018-06-15T13:41:34Z</time>
      </trkpt>
      <trkpt lat="48.65279" lon="-2.42546">
        <ele>-2.62</ele>
        <time>2018-06-15T13:41:50Z</time>
      </trkpt>
      <trkpt lat="48.65269" lon="-2.42552">
        <ele>-1.92</ele>
        <time>2018-06-15T13:42:06Z</time>
      </trkpt>
      <trkpt lat="48.65262" lon="-2.42553">
        <ele>-2.84</ele>
        <time>2018-06-15T13:42:20Z</time>
      </trkpt>
      <trkpt lat="48.65251" lon="-2.42557">
        <ele>-3.41</ele>
        <time>2018-06-15T13:42:37Z</time>
      </trkpt>
      <trkpt lat="48.65241" lon="-2.42559">
        <ele>-3.24</ele>
        <time>2018-06-15T13:42:53Z</time>
      </trkpt>
      <trkpt lat="48.6523" lon="-2.42562">
        <ele>-3.32</ele>
        <time>2018-06-15T13:43:08Z</time>
      </trkpt>
      <trkpt lat="48.65218" lon="-2.42568">
        <ele>-3.73</ele>
        <time>2018-06-15T13:43:24Z</time>
      </trkpt>
      <trkpt lat="48.65209" lon="-2.42572">
        <ele>-3.81</ele>
        <time>2018-06-15T13:43:39Z</time>
      </trkpt>
      <trkpt lat="48.65199" lon="-2.42567">
        <ele>-4.09</ele>
        <time>2018-06-15T13:43:52Z</time>
      </trkpt>
      <trkpt lat="48.65187" lon="-2.42562">
        <ele>-3.06</ele>
        <time>2018-06-15T13:44:08Z</time>
      </trkpt>
      <trkpt lat="48.65181" lon="-2.42562">
        <ele>-3.56</ele>
        <time>2018-06-15T13:44:17Z</time>
      </trkpt>
      <trkpt lat="48.65178" lon="-2.42563">
        <ele>-3.47</ele>
        <time>2018-06-15T13:44:20Z</time>
      </trkpt>
      <trkpt lat="48.65172" lon="-2.42563">
        <ele>-3.39</ele>
        <time>2018-06-15T13:44:27Z</time>
      </trkpt>
      <trkpt lat="48.65159" lon="-2.4257">
        <ele>-3.16</ele>
        <time>2018-06-15T13:44:43Z</time>
      </trkpt>
      <trkpt lat="48.65153" lon="-2.42584">
        <ele>-3.35</ele>
        <time>2018-06-15T13:44:57Z</time>
      </trkpt>
      <trkpt lat="48.6514" lon="-2.42596">
        <ele>-3.86</ele>
        <time>2018-06-15T13:45:13Z</time>
      </trkpt>
      <trkpt lat="48.65135" lon="-2.42604">
        <ele>-4.01</ele>
        <time>2018-06-15T13:45:21Z</time>
      </trkpt>
      <trkpt lat="48.65122" lon="-2.42608">
        <ele>-4.17</ele>
        <time>2018-06-15T13:45:38Z</time>
      </trkpt>
      <trkpt lat="48.65118" lon="-2.4261">
        <ele>-4.12</ele>
        <time>2018-06-15T13:45:46Z</time>
      </trkpt>
      <trkpt lat="48.65116" lon="-2.4261">
        <ele>-4.38</ele>
        <time>2018-06-15T13:45:48Z</time>
      </trkpt>
      <trkpt lat="48.65097" lon="-2.42618">
        <ele>-3.3</ele>
        <time>2018-06-15T13:46:08Z</time>
      </trkpt>
      <trkpt lat="48.65082" lon="-2.42621">
        <ele>-3.41</ele>
        <time>2018-06-15T13:46:22Z</time>
      </trkpt>
      <trkpt lat="48.65074" lon="-2.42622">
        <ele>-3.16</ele>
        <time>2018-06-15T13:46:35Z</time>
      </trkpt>
      <trkpt lat="48.65072" lon="-2.42623">
        <ele>-3.7</ele>
        <time>2018-06-15T13:46:43Z</time>
      </trkpt>
      <trkpt lat="48.65062" lon="-2.42634">
        <ele>-2.97</ele>
        <time>2018-06-15T13:46:59Z</time>
      </trkpt>
      <trkpt lat="48.65054" lon="-2.42638">
        <ele>-3.3</ele>
        <time>2018-06-15T13:47:09Z</time>
      </trkpt>
      <trkpt lat="48.65048" lon="-2.42641">
        <ele>-2.33</ele>
        <time>2018-06-15T13:47:24Z</time>
      </trkpt>
      <trkpt lat="48.6505" lon="-2.42646">
        <ele>-3.21</ele>
        <time>2018-06-15T13:47:44Z</time>
      </trkpt>
      <trkpt lat="48.6505" lon="-2.42648">
        <ele>-2.9</ele>
        <time>2018-06-15T13:48:03Z</time>
      </trkpt>
      <trkpt lat="48.65048" lon="-2.42649">
        <ele>-2.73</ele>
        <time>2018-06-15T13:48:25Z</time>
      </trkpt>
      <trkpt lat="48.6505" lon="-2.42647">
        <ele>-2.99</ele>
        <time>2018-06-15T13:48:55Z</time>
      </trkpt>
      <trkpt lat="48.65048" lon="-2.42648">
        <ele>-2.78</ele>
        <time>2018-06-15T13:49:18Z</time>
      </trkpt>
      <trkpt lat="48.65043" lon="-2.42654">
        <ele>-2.76</ele>
        <time>2018-06-15T13:49:33Z</time>
      </trkpt>
      <trkpt lat="48.65041" lon="-2.42655">
        <ele>-2.7</ele>
        <time>2018-06-15T13:49:51Z</time>
      </trkpt>
      <trkpt lat="48.65041" lon="-2.42656">
        <ele>-2.6</ele>
        <time>2018-06-15T13:49:52Z</time>
      </trkpt>
      <trkpt lat="48.65032" lon="-2.42669">
        <ele>-2.57</ele>
        <time>2018-06-15T13:50:08Z</time>
      </trkpt>
      <trkpt lat="48.65031" lon="-2.42669">
        <ele>-2.18</ele>
        <time>2018-06-15T13:50:09Z</time>
      </trkpt>
      <trkpt lat="48.65022" lon="-2.42673">
        <ele>-2.02</ele>
        <time>2018-06-15T13:50:22Z</time>
      </trkpt>
      <trkpt lat="48.6502" lon="-2.42675">
        <ele>-1.9</ele>
        <time>2018-06-15T13:50:24Z</time>
      </trkpt>
      <trkpt lat="48.65018" lon="-2.4268">
        <ele>-1.56</ele>
        <time>2018-06-15T13:50:28Z</time>
      </trkpt>
      <trkpt lat="48.65015" lon="-2.42686">
        <ele>-1.47</ele>
        <time>2018-06-15T13:50:33Z</time>
      </trkpt>
      <trkpt lat="48.65005" lon="-2.42703">
        <ele>-1.13</ele>
        <time>2018-06-15T13:50:48Z</time>
      </trkpt>
      <trkpt lat="48.64995" lon="-2.42718">
        <ele>-1.64</ele>
        <time>2018-06-15T13:51:03Z</time>
      </trkpt>
      <trkpt lat="48.6498" lon="-2.42735">
        <ele>-0.93</ele>
        <time>2018-06-15T13:51:21Z</time>
      </trkpt>
      <trkpt lat="48.64965" lon="-2.42748">
        <ele>-0.54</ele>
        <time>2018-06-15T13:51:38Z</time>
      </trkpt>
      <trkpt lat="48.64962" lon="-2.42752">
        <ele>-0.32</ele>
        <time>2018-06-15T13:51:42Z</time>
      </trkpt>
      <trkpt lat="48.64961" lon="-2.42755">
        <ele>-0.26</ele>
        <time>2018-06-15T13:51:44Z</time>
      </trkpt>
      <trkpt lat="48.64948" lon="-2.42779">
        <ele>0.54</ele>
        <time>2018-06-15T13:52:03Z</time>
      </trkpt>
      <trkpt lat="48.64933" lon="-2.42792">
        <ele>2.78</ele>
        <time>2018-06-15T13:52:19Z</time>
      </trkpt>
      <trkpt lat="48.64928" lon="-2.42795">
        <ele>2.07</ele>
        <time>2018-06-15T13:52:30Z</time>
      </trkpt>
      <trkpt lat="48.64916" lon="-2.42811">
        <ele>3.96</ele>
        <time>2018-06-15T13:52:47Z</time>
      </trkpt>
      <trkpt lat="48.64913" lon="-2.42818">
        <ele>4.8</ele>
        <time>2018-06-15T13:52:53Z</time>
      </trkpt>
      <trkpt lat="48.64905" lon="-2.42835">
        <ele>5.89</ele>
        <time>2018-06-15T13:53:07Z</time>
      </trkpt>
      <trkpt lat="48.64897" lon="-2.42842">
        <ele>6.33</ele>
        <time>2018-06-15T13:53:17Z</time>
      </trkpt>
      <trkpt lat="48.64886" lon="-2.42847">
        <ele>6.11</ele>
        <time>2018-06-15T13:53:31Z</time>
      </trkpt>
      <trkpt lat="48.64879" lon="-2.42862">
        <ele>7.5</ele>
        <time>2018-06-15T13:53:48Z</time>
      </trkpt>
      <trkpt lat="48.64879" lon="-2.42871">
        <ele>7.53</ele>
        <time>2018-06-15T13:53:55Z</time>
      </trkpt>
      <trkpt lat="48.64882" lon="-2.42878">
        <ele>6.88</ele>
        <time>2018-06-15T13:54:00Z</time>
      </trkpt>
      <trkpt lat="48.64882" lon="-2.42882">
        <ele>6.82</ele>
        <time>2018-06-15T13:54:02Z</time>
      </trkpt>
      <trkpt lat="48.64888" lon="-2.42912">
        <ele>6.92</ele>
        <time>2018-06-15T13:54:20Z</time>
      </trkpt>
      <trkpt lat="48.64888" lon="-2.42917">
        <ele>7.15</ele>
        <time>2018-06-15T13:54:23Z</time>
      </trkpt>
      <trkpt lat="48.6489" lon="-2.42922">
        <ele>7.19</ele>
        <time>2018-06-15T13:54:26Z</time>
      </trkpt>
      <trkpt lat="48.64896" lon="-2.4295">
        <ele>6.83</ele>
        <time>2018-06-15T13:54:42Z</time>
      </trkpt>
      <trkpt lat="48.64898" lon="-2.42958">
        <ele>6.93</ele>
        <time>2018-06-15T13:54:47Z</time>
      </trkpt>
      <trkpt lat="48.649" lon="-2.42972">
        <ele>7.05</ele>
        <time>2018-06-15T13:54:54Z</time>
      </trkpt>
      <trkpt lat="48.64904" lon="-2.42997">
        <ele>6.87</ele>
        <time>2018-06-15T13:55:09Z</time>
      </trkpt>
      <trkpt lat="48.64905" lon="-2.43002">
        <ele>6.76</ele>
        <time>2018-06-15T13:55:12Z</time>
      </trkpt>
      <trkpt lat="48.64909" lon="-2.43027">
        <ele>7.3</ele>
        <time>2018-06-15T13:55:27Z</time>
      </trkpt>
      <trkpt lat="48.64911" lon="-2.43037">
        <ele>7.78</ele>
        <time>2018-06-15T13:55:34Z</time>
      </trkpt>
      <trkpt lat="48.64916" lon="-2.43061">
        <ele>7.45</ele>
        <time>2018-06-15T13:55:50Z</time>
      </trkpt>
      <trkpt lat="48.64917" lon="-2.43062">
        <ele>7.72</ele>
        <time>2018-06-15T13:55:51Z</time>
      </trkpt>
      <trkpt lat="48.64924" lon="-2.43079">
        <ele>7.3</ele>
        <time>2018-06-15T13:56:06Z</time>
      </trkpt>
      <trkpt lat="48.64922" lon="-2.43089">
        <ele>7.27</ele>
        <time>2018-06-15T13:56:12Z</time>
      </trkpt>
      <trkpt lat="48.6492" lon="-2.43105">
        <ele>6.67</ele>
        <time>2018-06-15T13:56:23Z</time>
      </trkpt>
      <trkpt lat="48.64917" lon="-2.43113">
        <ele>6.79</ele>
        <time>2018-06-15T13:56:28Z</time>
      </trkpt>
      <trkpt lat="48.64908" lon="-2.43122">
        <ele>6.39</ele>
        <time>2018-06-15T13:56:46Z</time>
      </trkpt>
      <trkpt lat="48.64907" lon="-2.4313">
        <ele>7.8</ele>
        <time>2018-06-15T13:56:58Z</time>
      </trkpt>
      <trkpt lat="48.6492" lon="-2.43151">
        <ele>7.43</ele>
        <time>2018-06-15T13:57:18Z</time>
      </trkpt>
      <trkpt lat="48.64929" lon="-2.43173">
        <ele>7.17</ele>
        <time>2018-06-15T13:57:37Z</time>
      </trkpt>
      <trkpt lat="48.64938" lon="-2.43189">
        <ele>7.19</ele>
        <time>2018-06-15T13:57:52Z</time>
      </trkpt>
      <trkpt lat="48.64957" lon="-2.4321">
        <ele>7.22</ele>
        <time>2018-06-15T13:58:15Z</time>
      </trkpt>
      <trkpt lat="48.64968" lon="-2.43238">
        <ele>7.6</ele>
        <time>2018-06-15T13:58:39Z</time>
      </trkpt>
      <trkpt lat="48.64978" lon="-2.43249">
        <ele>7.46</ele>
        <time>2018-06-15T13:58:53Z</time>
      </trkpt>
      <trkpt lat="48.64992" lon="-2.43264">
        <ele>6.9</ele>
        <time>2018-06-15T13:59:10Z</time>
      </trkpt>
      <trkpt lat="48.65004" lon="-2.43283">
        <ele>6.95</ele>
        <time>2018-06-15T13:59:29Z</time>
      </trkpt>
      <trkpt lat="48.65016" lon="-2.43296">
        <ele>8.98</ele>
        <time>2018-06-15T13:59:48Z</time>
      </trkpt>
      <trkpt lat="48.6503" lon="-2.43319">
        <ele>9.11</ele>
        <time>2018-06-15T14:00:06Z</time>
      </trkpt>
      <trkpt lat="48.65041" lon="-2.43337">
        <ele>9.29</ele>
        <time>2018-06-15T14:00:20Z</time>
      </trkpt>
      <trkpt lat="48.65044" lon="-2.43344">
        <ele>9.62</ele>
        <time>2018-06-15T14:00:25Z</time>
      </trkpt>
      <trkpt lat="48.65047" lon="-2.43352">
        <ele>9.7</ele>
        <time>2018-06-15T14:00:31Z</time>
      </trkpt>
      <trkpt lat="48.65048" lon="-2.43355">
        <ele>9.4</ele>
        <time>2018-06-15T14:00:33Z</time>
      </trkpt>
      <trkpt lat="48.65057" lon="-2.43374">
        <ele>9.09</ele>
        <time>2018-06-15T14:00:47Z</time>
      </trkpt>
      <trkpt lat="48.65061" lon="-2.43381">
        <ele>9.1</ele>
        <time>2018-06-15T14:00:52Z</time>
      </trkpt>
      <trkpt lat="48.65066" lon="-2.43394">
        <ele>9.03</ele>
        <time>2018-06-15T14:01:00Z</time>
      </trkpt>
      <trkpt lat="48.65069" lon="-2.43404">
        <ele>8.96</ele>
        <time>2018-06-15T14:01:06Z</time>
      </trkpt>
      <trkpt lat="48.6508" lon="-2.43426">
        <ele>9.69</ele>
        <time>2018-06-15T14:01:20Z</time>
      </trkpt>
      <trkpt lat="48.65086" lon="-2.43434">
        <ele>8.66</ele>
        <time>2018-06-15T14:01:26Z</time>
      </trkpt>
      <trkpt lat="48.65096" lon="-2.43455">
        <ele>7.76</ele>
        <time>2018-06-15T14:01:41Z</time>
      </trkpt>
      <trkpt lat="48.6511" lon="-2.43468">
        <ele>7.89</ele>
        <time>2018-06-15T14:01:56Z</time>
      </trkpt>
      <trkpt lat="48.65121" lon="-2.43484">
        <ele>7.45</ele>
        <time>2018-06-15T14:02:09Z</time>
      </trkpt>
      <trkpt lat="48.65124" lon="-2.43487">
        <ele>7.43</ele>
        <time>2018-06-15T14:02:13Z</time>
      </trkpt>
      <trkpt lat="48.65132" lon="-2.43505">
        <ele>8.23</ele>
        <time>2018-06-15T14:02:30Z</time>
      </trkpt>
      <trkpt lat="48.65136" lon="-2.4351">
        <ele>7.83</ele>
        <time>2018-06-15T14:02:35Z</time>
      </trkpt>
      <trkpt lat="48.6514" lon="-2.43508">
        <ele>9.03</ele>
        <time>2018-06-15T14:02:49Z</time>
      </trkpt>
      <trkpt lat="48.65139" lon="-2.43509">
        <ele>8.25</ele>
        <time>2018-06-15T14:03:09Z</time>
      </trkpt>
      <trkpt lat="48.65138" lon="-2.43512">
        <ele>7.87</ele>
        <time>2018-06-15T14:03:29Z</time>
      </trkpt>
      <trkpt lat="48.65133" lon="-2.4351">
        <ele>7.91</ele>
        <time>2018-06-15T14:03:43Z</time>
      </trkpt>
      <trkpt lat="48.65138" lon="-2.43512">
        <ele>8.57</ele>
        <time>2018-06-15T14:04:00Z</time>
      </trkpt>
      <trkpt lat="48.65143" lon="-2.4352">
        <ele>8.09</ele>
        <time>2018-06-15T14:04:11Z</time>
      </trkpt>
      <trkpt lat="48.65152" lon="-2.43533">
        <ele>8.15</ele>
        <time>2018-06-15T14:04:26Z</time>
      </trkpt>
      <trkpt lat="48.65155" lon="-2.43539">
        <ele>8.04</ele>
        <time>2018-06-15T14:04:31Z</time>
      </trkpt>
      <trkpt lat="48.65168" lon="-2.4356">
        <ele>8.16</ele>
        <time>2018-06-15T14:04:49Z</time>
      </trkpt>
      <trkpt lat="48.6517" lon="-2.43564">
        <ele>8.34</ele>
        <time>2018-06-15T14:04:52Z</time>
      </trkpt>
      <trkpt lat="48.65173" lon="-2.43569">
        <ele>8</ele>
        <time>2018-06-15T14:04:56Z</time>
      </trkpt>
      <trkpt lat="48.65183" lon="-2.43589">
        <ele>8.38</ele>
        <time>2018-06-15T14:05:11Z</time>
      </trkpt>
      <trkpt lat="48.65194" lon="-2.43605">
        <ele>7.67</ele>
        <time>2018-06-15T14:05:24Z</time>
      </trkpt>
      <trkpt lat="48.65199" lon="-2.43613">
        <ele>7.79</ele>
        <time>2018-06-15T14:05:32Z</time>
      </trkpt>
      <trkpt lat="48.65205" lon="-2.43624">
        <ele>8.16</ele>
        <time>2018-06-15T14:05:40Z</time>
      </trkpt>
      <trkpt lat="48.65212" lon="-2.43646">
        <ele>7.4</ele>
        <time>2018-06-15T14:05:54Z</time>
      </trkpt>
      <trkpt lat="48.65216" lon="-2.43655">
        <ele>7.8</ele>
        <time>2018-06-15T14:06:01Z</time>
      </trkpt>
      <trkpt lat="48.65223" lon="-2.43669">
        <ele>8.22</ele>
        <time>2018-06-15T14:06:11Z</time>
      </trkpt>
      <trkpt lat="48.65226" lon="-2.43673">
        <ele>7.63</ele>
        <time>2018-06-15T14:06:14Z</time>
      </trkpt>
      <trkpt lat="48.65229" lon="-2.43677">
        <ele>7.18</ele>
        <time>2018-06-15T14:06:17Z</time>
      </trkpt>
      <trkpt lat="48.65239" lon="-2.43708">
        <ele>7.5</ele>
        <time>2018-06-15T14:06:34Z</time>
      </trkpt>
      <trkpt lat="48.65249" lon="-2.43741">
        <ele>6.8</ele>
        <time>2018-06-15T14:06:54Z</time>
      </trkpt>
      <trkpt lat="48.65254" lon="-2.43769">
        <ele>6.66</ele>
        <time>2018-06-15T14:07:11Z</time>
      </trkpt>
      <trkpt lat="48.65254" lon="-2.43796">
        <ele>7.23</ele>
        <time>2018-06-15T14:07:26Z</time>
      </trkpt>
      <trkpt lat="48.65251" lon="-2.43812">
        <ele>6.67</ele>
        <time>2018-06-15T14:07:42Z</time>
      </trkpt>
      <trkpt lat="48.65243" lon="-2.43834">
        <ele>7.02</ele>
        <time>2018-06-15T14:07:57Z</time>
      </trkpt>
      <trkpt lat="48.65237" lon="-2.43841">
        <ele>7.31</ele>
        <time>2018-06-15T14:08:05Z</time>
      </trkpt>
      <trkpt lat="48.65228" lon="-2.43853">
        <ele>7.37</ele>
        <time>2018-06-15T14:08:14Z</time>
      </trkpt>
      <trkpt lat="48.65218" lon="-2.43872">
        <ele>6.71</ele>
        <time>2018-06-15T14:08:28Z</time>
      </trkpt>
      <trkpt lat="48.65209" lon="-2.43892">
        <ele>7.25</ele>
        <time>2018-06-15T14:08:42Z</time>
      </trkpt>
      <trkpt lat="48.65203" lon="-2.43903">
        <ele>7.88</ele>
        <time>2018-06-15T14:08:51Z</time>
      </trkpt>
      <trkpt lat="48.65198" lon="-2.43911">
        <ele>6.84</ele>
        <time>2018-06-15T14:09:08Z</time>
      </trkpt>
      <trkpt lat="48.65192" lon="-2.43917">
        <ele>7.82</ele>
        <time>2018-06-15T14:09:15Z</time>
      </trkpt>
      <trkpt lat="48.65189" lon="-2.4392">
        <ele>8.03</ele>
        <time>2018-06-15T14:09:18Z</time>
      </trkpt>
      <trkpt lat="48.65187" lon="-2.43922">
        <ele>8.34</ele>
        <time>2018-06-15T14:09:20Z</time>
      </trkpt>
      <trkpt lat="48.65186" lon="-2.43924">
        <ele>9.3</ele>
        <time>2018-06-15T14:09:22Z</time>
      </trkpt>
      <trkpt lat="48.65177" lon="-2.43929">
        <ele>8.36</ele>
        <time>2018-06-15T14:09:33Z</time>
      </trkpt>
      <trkpt lat="48.65173" lon="-2.43933">
        <ele>8.51</ele>
        <time>2018-06-15T14:09:38Z</time>
      </trkpt>
      <trkpt lat="48.6517" lon="-2.43935">
        <ele>8.36</ele>
        <time>2018-06-15T14:09:41Z</time>
      </trkpt>
      <trkpt lat="48.65161" lon="-2.43943">
        <ele>8.12</ele>
        <time>2018-06-15T14:09:59Z</time>
      </trkpt>
      <trkpt lat="48.65158" lon="-2.43948">
        <ele>9.05</ele>
        <time>2018-06-15T14:10:10Z</time>
      </trkpt>
      <trkpt lat="48.65164" lon="-2.43927">
        <ele>8.37</ele>
        <time>2018-06-15T14:10:24Z</time>
      </trkpt>
      <trkpt lat="48.65172" lon="-2.43908">
        <ele>8.33</ele>
        <time>2018-06-15T14:10:38Z</time>
      </trkpt>
      <trkpt lat="48.65173" lon="-2.43894">
        <ele>9.14</ele>
        <time>2018-06-15T14:10:52Z</time>
      </trkpt>
      <trkpt lat="48.65184" lon="-2.43882">
        <ele>9.05</ele>
        <time>2018-06-15T14:11:08Z</time>
      </trkpt>
      <trkpt lat="48.65186" lon="-2.43865">
        <ele>10.43</ele>
        <time>2018-06-15T14:11:25Z</time>
      </trkpt>
      <trkpt lat="48.65189" lon="-2.43871">
        <ele>10.62</ele>
        <time>2018-06-15T14:11:45Z</time>
      </trkpt>
      <trkpt lat="48.65193" lon="-2.43872">
        <ele>11.48</ele>
        <time>2018-06-15T14:12:01Z</time>
      </trkpt>
      <trkpt lat="48.65194" lon="-2.43872">
        <ele>11.24</ele>
        <time>2018-06-15T14:12:02Z</time>
      </trkpt>
      <trkpt lat="48.65194" lon="-2.43873">
        <ele>13.04</ele>
        <time>2018-06-15T14:12:04Z</time>
      </trkpt>
      <trkpt lat="48.65194" lon="-2.43872">
        <ele>10.96</ele>
        <time>2018-06-15T14:12:06Z</time>
      </trkpt>
      <trkpt lat="48.65193" lon="-2.43869">
        <ele>11.81</ele>
        <time>2018-06-15T14:12:09Z</time>
      </trkpt>
    </trkseg>
  </trk>
</gpx>